Hauptseite
METAR-TAF:

METAR-TAF

Flughäfen :

N’Djamena, Tschad

Flughafen N’Djamena

Breite: 12-08N, Länge: 015-02E, Höhe: 295 m

Beobachtung

Neuester Wetterbericht von vor 1 Stunde und 8 Minuten, um 13:00 UTC
Wind 6 kt aus Nord, variierte zwischen Nordwest und Ost
Temperatur 39°C
Luftfeuchtigkeit 11%
Luftdruck 1009 hPa
Sichtweite 10 km oder mehr
keine Wolken unter 1500 m und keine Kumulonimbus oder Gewitterwolken

METAR: FTTJ 201300Z 01006KT 320V090 CAVOK 39/03 Q1009 NOSIG

Zeit: 15:08 (14:08 UTC)

Prognose

Neuester Wetterbericht von vor 3 Stunden und 8 Minuten, um 11:00 UTC
Gültige Prognose vom 20 um 12 UTC bis 21 um 18 UTC
Wind 10 kt aus Ost/Nordost
Sichtweite: 8000 m
Zeitweise
vom 20 um 18 UTC bis 21 um 06 UTC
Wind 6 kt aus Nord/Nordwest
Sichtweite: 4000 m
trockener Dunst

TAF: FTTJ 201100Z 2012/2118 06010KT 8000 NSC TEMPO 2018/2106 34006KT 4000 HZ

Wetterbeobachtungen und Prognosen von mehr als 4000 Flughäfen (METAR und TAF Bericht).

Die verfügbaren Stationen werden durch gelbe und rote Markierungen auf der Karte dargestellt.

Führen Sie die Maus auf sie, um den Namen der Station zu sehen.

Darauf klicken, um die Beobachtung von Wetterbeobachtungen und Prognosen zu sehen.

Um die Karte zu ändern : klicken Sie auf den grünen Tasten mit einem schwarzen Kreuz Zum Vergrößern, auf den grünen Button mit einem Gedankenstrich zu verkleinern, oder auf die grünen Pfeile für benachbarte Karten.


METAR-TAF: